Weather observations for the past three days for
Majuro Atoll - NWS Office
Imperial (Metric)
Date Time (+12) Wind (mph) Vis. (mi.) Weather Sky Cond. Temperature (ºF) Relative Humidity Wind Chill (°F) Heat Index (°F) Pressure Precipitation (in)
Air Dwpt 6 hour altimeter (in) sea level (mb) 1 hr 3 hr 6 hr
Max. Min.
10 02:52 E 6 15.00 Overcast FEW015 SCT050 BKN120 OVC300 84.4 77.4 80% 95 29.8 1009.0
10 01:53 E 7 15.00 Overcast FEW015 SCT050 BKN120 OVC300 84.2 77.7 81% 95 29.81 1009.4
10 00:53 E 7 15.00 Mostly Cloudy FEW015 SCT050 BKN300 84.6 78.3 81% 96 29.83 1010.1
09 23:54 E 7 15.00 Overcast FEW015 SCT050 OVC300 84.4 78.4 86.2 84.4 82% 96 29.84 1010.3
09 22:53 E 6 15.00 Overcast FEW015 SCT050 BKN120 OVC300 84.4 77.9 81% 95 29.84 1010.4
09 21:51 E 6 15.00 Overcast FEW015 SCT050 BKN120 OVC300 84.6 77.9 81% 96 29.84 1010.6
09 20:50 E 6 15.00 Overcast FEW015 SCT050 BKN120 OVC300 84.6 78.1 81% 96 29.84 1010.5
09 19:51 E 7 15.00 Overcast FEW015 SCT050 BKN120 OVC300 84.7 78.1 81% 96 29.83 1010.0
09 18:53 E 6 15.00 Overcast FEW015 SCT050 BKN120 OVC300 84.6 77.7 80% 96 29.82 1009.9
09 15:51 E 6 15.00 Overcast FEW015 SCT050 BKN120 OVC300 86 78.3 78% 99 29.78 1008.3
09 14:53 E 7 15.00 Overcast FEW015 SCT050 BKN120 OVC300 86.2 78.3 77% 99 29.79 1008.7
09 13:50 E 5 15.00 Overcast FEW015 SCT050 BKN120 OVC300 86.2 78.1 77% 99 29.79 1008.8
09 12:53 E 6 15.00 Overcast FEW015 SCT050 BKN120 OVC300 84.7 78.4 81% 97 29.82 1010.0
09 11:50 E 6 15.00 Overcast FEW015 SCT050 BKN120 OVC300 87.8 78.4 87.8 83.8 74% 102 29.82 1010.0
09 10:50 E 10 15.00 Overcast FEW015 SCT050 BKN120 OVC300 86.5 79.2 79% 101 29.85 1010.7
09 09:53 E 8 15.00 Overcast FEW015 SCT050 BKN120 OVC300 86.2 77.7 76% 98 29.85 1010.9
09 08:50 E 5 15.00 Overcast FEW015 SCT050 BKN120 OVC300 85.3 77 76% 96 29.85 1010.8
09 07:50 E 5 15.00 Mostly Cloudy FEW015 SCT050 BKN300 84.7 77.2 78% 95 29.84 1010.6
09 06:55 E 9 15.00 Mostly Cloudy FEW015 BKN120 BKN300 84 77.4 80% 94 29.82 1009.7
09 05:54 E 10 15.00 Overcast FEW015 SCT050 BKN120 OVC300 83.8 77.2 83.8 83.5 80% 94 29.8 1009.1
09 04:58 E 7 15.00 Overcast FEW015 SCT050 BKN120 OVC300 83.7 77 80% 93 29.79 1008.7
09 02:56 E 10 15.00 Overcast FEW015 SCT050 BKN120 OVC300 83.5 77 81% 93 29.78 1008.5
09 01:51 E 8 15.00 Overcast FEW015 SCT050 BKN120 OVC300 83.7 77.2 81% 93 29.79 1008.9
09 00:56 E 9 15.00 Overcast FEW015 SCT050 BKN120 OVC300 83.7 77 80% 93 29.8 1009.2
08 23:51 E 9 15.00 Overcast FEW015 SCT050 BKN120 OVC300 83.8 77.2 83.8 82.6 80% 94 29.83 1010.0
08 22:57 E 12 15.00 Overcast FEW015 SCT050 BKN120 OVC300 83.5 76.3 79% 92 29.84 1010.4
08 21:51 E 6 15.00 Overcast FEW015 SCT050 BKN120 OVC300 83.7 77 80% 93 29.84 1010.5
08 20:54 E 6 15.00 Overcast FEW015 SCT050 BKN120 OVC300 83.5 77.4 82% 93 29.83 1010.1
08 19:50 E 6 15.00 Overcast FEW015 SCT050 BKN120 OVC300 82.8 75.7 79% 91 29.82 1009.7
08 18:52 E 6 15.00 Overcast FEW015 SCT050 BKN120 OVC300 82.6 76.3 81% 91 29.81 1009.5
08 17:54 NE 9 15.00 Overcast FEW015 SCT050 BKN120 OVC300 82.6 76.5 85.6 82.6 82% 91 29.77 1008.2
08 16:53 E 8 15.00 Overcast FEW014TCU SCT050 BKN120 OVC300 82.6 75.4 79% 90 29.76 1007.9
08 15:52 E 8 15.00 Overcast FEW015 SCT050 BKN120 OVC300 83.3 76.5 80% 92 29.77 1008.3
08 14:52 NE 10 15.00 Overcast FEW015 SCT050 BKN120 OVC300 83.8 77.5 81% 94 29.78 1008.5
08 13:52 NE 12 15.00 Overcast FEW015 SCT050 BKN120 OVC300 84.4 77.5 80% 95 29.79 1008.9
08 12:51 NE 14 15.00 Overcast FEW015 SCT050 BKN120 OVC300 85.5 77.7 78% 97 29.82 1009.7
08 11:51 NE 12 15.00 Overcast FEW015 SCT050 BKN120 OVC300 85.6 78.4 87.3 80.8 79% 98 29.83 1010.0 0.08
08 10:51 E 7 15.00 Overcast FEW014 SCT045 BKN120 OVC300 87.3 77.7 73% 100 29.86 1011.0
08 09:51 E 6 15.00 Overcast FEW014 SCT045 BKN120 OVC300 85.5 76.8 75% 96 29.86 1011.2
08 07:52 E 6 14.00 Light Rain FEW014 SCT045 BKN110 OVC130 81 75.9 85% 87 29.85 1011.0
08 06:51 E 6 14.00 Light Rain SCT014 SCT045 BKN110 OVC130 80.1 75.7 87% 85 29.83 1010.0
08 05:52 E 14 12.00 Mostly Cloudy SCT014TCU SCT045 BKN110 79.9 75.9 80.6 79.3 88% 85 29.82 1009.9 0.85
08 04:57 E 17 15.00 Mostly Cloudy SCT014TCU SCT045 BKN110 80.1 75.9 87% 85 29.81 1009.6
08 03:54 E 13 15.00 Mostly Cloudy SCT014TCU SCT045 BKN110 80.4 76.6 88% 87 29.8 1009.0
08 02:58 E 7 15.00 Mostly Cloudy SCT014TCU SCT045 BKN110 79.3 75.7 89% 84 29.8 1009.0 0.77
08 01:50 E 10 12.00 Light Showers Rain SCT014TCU SCT050 OVC110 80.6 76.6 88% 87 29.81 1009.4
08 00:56 E 9 15.00 Overcast SCT014TCU SCT050 OVC110 79.5 75.7 88% 84 29.83 1010.0
07 23:55 E 10 12.00 Light Showers Rain SCT014TCU SCT050 OVC110 79.7 75.4 83.3 79.7 87% 84 29.85 1010.9 0.06
07 22:55 SE 20 15.00 Overcast SCT014TCU SCT050 OVC110 80.8 76.5 87% 87 29.84 1010.3
07 21:56 E 15 15.00 Overcast FEW015 SCT050 BKN120 OVC300 83.3 76.6 80% 92 29.85 1010.7
07 20:53 E 15 15.00 Overcast FEW015 SCT050 BKN120 OVC300 83.1 76.1 79% 91 29.84 1010.3
07 19:50 E 17 15.00 Mostly Cloudy FEW014TCU SCT050 BKN110 82.8 76.3 81% 91 29.82 1009.8
07 18:52 NE 16 15.00 Mostly Cloudy FEW014TCU SCT050 BKN110 82 76.3 83% 90 29.79 1008.8
07 16:58 E 14 15.00 Mostly Cloudy FEW015 SCT050 BKN120 86.2 76.6 73% 97 29.77 1008.0
07 15:58 N 16 15.00 A Few Clouds FEW016 86.9 77 72% 99 29.74 1007.2
07 14:58 E 14 15.00 A Few Clouds FEW016 87.1 76.8 72% 99 29.74 1007.1
07 13:58 NE 14 15.00 A Few Clouds FEW016 86.5 76.6 72% 98 29.75 1007.4
07 10:58 NE 16 15.00 A Few Clouds FEW016 87.6 77.2 71% 100 29.81 1009.4
07 09:58 NE 12 15.00 A Few Clouds FEW015 87.3 77.2 72% 99 29.8 1009.3
07 08:58 E 16 15.00 Mostly Cloudy FEW015 BKN300 86.2 76.3 72% 97 29.8 1009.0
07 07:56 E 20 15.00 Mostly Cloudy FEW015 BKN300 85.1 75.6 73% 94 29.78 1008.4
07 06:55 E 13 15.00 Mostly Cloudy FEW015 BKN300 84 75.7 76% 93 29.76 1007.8
07 05:54 E 14 15.00 Mostly Cloudy FEW015 BKN300 83.8 75.2 83.8 81.7 75% 92 29.74 1007.2 0.07
07 04:50 E 9 15.00 Mostly Cloudy FEW015 BKN300 83.7 74.8 75% 91 29.74 1007.1
07 03:50 E 18 15.00 Mostly Cloudy FEW015 SCT050 BKN300 83.5 75 76% 91 29.75 1007.3
Date Time (+12) Wind (mph) Vis. (mi.) Weather Sky Cond. Air Dwpt Max. Min. Relative Humidity Wind Chill (°F) Heat Index (°F) altimeter (in) sea level (mb) 1 hr 3 hr 6 hr
6 hour
Temperature (ºF) Pressure Precipitation (in)